Portsmouth International at Pease Airport Portsmouth US
ICAO: KPSM
IATA: PSM
Category: Medium
Scheduled Services: Yes

Elevation: 100 ft
TransAlt. 18000 ft.

Airport Communications:
BOSTON APP:125.05
ATIS:132.05
CLNC DEL:33.58
DEP:125.05
GCA:127.05
GND:120.95
ARW ANG OPS:134.1
TWR:128.4
UNICOM:122.95

KPSM Zoom In..

Runways:

(A) RW 16 length 11321 ft width 150 ft
ILS 110.10 / hdg 165

(B) RW 34 length 11321 ft width 150 ft
ILS 110.10 / hdg 345

Location; KPSM
Day. 30 / Time. 21.56 Zulu
* Altimeter: 29.66
* Temperature: 12° c. 53.6°f.
* Wind from: 140° Speed 23 kn with Gusts up to 33 kn.
Dewpoint: 12° c.
Visibility: 1 m.
Clouds: Broken 300 ft.
Clouds: Overcast 900 ft.
Conditions: Rain.Conditions: Mist.

KPSM 302156Z 14023G33KT 1 1/4SM RA BR BKN003 OVC009 12/12 A2966 RMK AO2A PK WND 14042/19 SLP047 P0020 T01230120

Going to: --> -->


Wind From 140°
Speed 23 kn.

 
 
jpsmedia worldairports.se 2020   terms of use